Bookmark and Share
Track history (hours):
 

Oval Lp No.11

Last reported at 2014-Apr-23 11:10 UTC. Time now 2014-Apr-24 20:02 UTC.
Position N 34°02' E 135°00'.

Length 67 m; draft 3.6 m.

Type: Ship (hazmat cat A). MMSI: 431500366.

NotesDate/timePositionNaut miles runAvg speedWind from/ knotsBaromVisibWave heightAir tempDewpointWater temp
2014-Apr-23 11:10N 34°02' E 135°00'812.6
2014-Apr-23 10:33N 34°10' E 134°59'1512.0
2014-Apr-23 09:19N 34°24' E 135°04'912.2
2014-Apr-23 08:33N 34°30' E 135°13'1111.3
2014-Apr-23 07:33N 34°36' E 135°24'2 1.9
2014-Apr-23 06:28N 34°34' E 135°26'0 0.0
2014-Apr-23 05:28N 34°34' E 135°26'0 0.0
2014-Apr-23 04:28N 34°34' E 135°26'2 2.0
2014-Apr-23 03:33N 34°35' E 135°23'2 0.4
2014-Apr-22 23:32N 34°34' E 135°25'7 7.2
2014-Apr-22 22:33N 34°40' E 135°22'0 0.1
2014-Apr-22 21:20N 34°40' E 135°22'0 0.0
2014-Apr-22 20:26N 34°40' E 135°22'0 0.1
2014-Apr-22 19:32N 34°40' E 135°22'0 0.0
2014-Apr-22 18:26N 34°40' E 135°22'0 0.0
2014-Apr-22 17:26N 34°40' E 135°22'0 0.1
2014-Apr-22 16:32N 34°40' E 135°22'0 0.0
2014-Apr-22 15:32N 34°40' E 135°22'0 0.0
2014-Apr-22 14:32N 34°40' E 135°22'0 0.0
2014-Apr-22 13:32N 34°40' E 135°22'0 0.0
2014-Apr-22 12:32N 34°40' E 135°22'0 0.0
2014-Apr-22 11:32N 34°40' E 135°22'0 0.0
2014-Apr-22 10:26N 34°40' E 135°22'0 0.0
2014-Apr-22 09:32N 34°40' E 135°22'0 0.0
2014-Apr-22 08:26N 34°40' E 135°22'0 0.0
2014-Apr-22 07:20N 34°40' E 135°22'0 0.0
2014-Apr-22 06:32N 34°40' E 135°22'0 0.0
2014-Apr-22 05:32N 34°40' E 135°22'0 0.0
2014-Apr-22 04:32N 34°40' E 135°22'0 0.0
2014-Apr-22 03:26N 34°40' E 135°22'0 0.0
2014-Apr-22 02:32N 34°40' E 135°22'0 0.0
2014-Apr-22 01:32N 34°40' E 135°22'0 0.0
2014-Apr-22 00:32N 34°40' E 135°22'0 0.0
2014-Apr-21 23:32N 34°40' E 135°22'0 0.0
2014-Apr-21 22:32N 34°40' E 135°22'0 0.0
2014-Apr-21 21:26N 34°40' E 135°22'0 0.0
2014-Apr-21 20:32N 34°40' E 135°22'0 0.0
2014-Apr-21 19:32N 34°40' E 135°22'0 0.0
2014-Apr-21 18:32N 34°40' E 135°22'0 0.0
2014-Apr-21 17:32N 34°40' E 135°22'0 0.0
2014-Apr-21 16:20N 34°40' E 135°22'0 0.0
2014-Apr-21 15:32N 34°40' E 135°22'0 0.0
2014-Apr-21 14:32N 34°40' E 135°22'0 0.0
2014-Apr-21 13:26N 34°40' E 135°22'0 0.0
2014-Apr-21 12:32N 34°40' E 135°22'0 0.0
2014-Apr-21 11:32N 34°40' E 135°22'0 0.0
2014-Apr-21 10:26N 34°40' E 135°22'3 3.9
2014-Apr-21 09:33N 34°37' E 135°21'4 3.9
2014-Apr-21 08:30N 34°34' E 135°26'0 0.0
2014-Apr-21 07:30N 34°34' E 135°26'0 0.0
2014-Apr-21 06:30N 34°34' E 135°26'3 3.5
2014-Apr-21 05:33N 34°36' E 135°22'1211.6
2014-Apr-21 04:33N 34°28' E 135°12'1211.6
2014-Apr-21 03:33N 34°20' E 135°02'1110.7
2014-Apr-21 02:34N 34°09' E 135°01'11 0.3
2014-Apr-19 11:27N 33°58' E 135°01'1112.2
2014-Apr-19 10:33N 34°09' E 134°59'1512.3
2014-Apr-19 09:19N 34°24' E 135°04'1013.1
2014-Apr-19 08:33N 34°30' E 135°13'1111.3
2014-Apr-19 07:33N 34°36' E 135°25'1 1.3
2014-Apr-19 06:32N 34°34' E 135°26'0 0.0
2014-Apr-19 05:32N 34°34' E 135°26'0 0.0
2014-Apr-19 04:32N 34°34' E 135°26'2 1.5
2014-Apr-19 03:33N 34°33' E 135°24'2 1.7
2014-Apr-19 02:33N 34°33' E 135°26'1 0.5
2014-Apr-18 23:33N 34°33' E 135°25'4 2.9
2014-Apr-18 22:16N 34°32' E 135°20'0 0.0
2014-Apr-18 21:28N 34°32' E 135°20'0 0.0
2014-Apr-18 20:28N 34°32' E 135°20'0 0.0
2014-Apr-18 19:28N 34°32' E 135°20'0 0.0
2014-Apr-18 18:22N 34°32' E 135°20'0 0.0
2014-Apr-18 17:28N 34°32' E 135°20'0 0.0
2014-Apr-18 16:28N 34°32' E 135°20'0 0.0
2014-Apr-18 15:28N 34°32' E 135°20'0 0.0
2014-Apr-18 14:22N 34°32' E 135°20'0 0.0
2014-Apr-18 13:28N 34°32' E 135°20'0 0.0
2014-Apr-18 12:22N 34°32' E 135°20'0 0.0
2014-Apr-18 11:28N 34°32' E 135°20'0 0.0
2014-Apr-18 10:16N 34°32' E 135°20'0 0.1
2014-Apr-18 09:16N 34°32' E 135°20'0 0.0
2014-Apr-18 08:28N 34°32' E 135°20'0 0.0
2014-Apr-18 07:31N 34°32' E 135°20'5 5.1
2014-Apr-18 06:33N 34°35' E 135°26'0 0.3
2014-Apr-18 05:31N 34°34' E 135°26'0 0.0
2014-Apr-18 04:31N 34°34' E 135°26'0 0.0
2014-Apr-18 03:33N 34°34' E 135°26'7 6.8
2014-Apr-18 02:33N 34°32' E 135°18'1111.4
2014-Apr-18 01:33N 34°24' E 135°08'1111.1
2014-Apr-18 00:33N 34°15' E 134°59'1211.5
2014-Apr-17 23:31N 34°04' E 135°01'5 0.1
2014-Apr-16 11:32N 33°59' E 135°01'1111.6
2014-Apr-16 10:34N 34°11' E 134°60'1210.5
2014-Apr-16 09:23N 34°23' E 135°02'1012.4
2014-Apr-16 08:34N 34°29' E 135°12'1212.0
2014-Apr-16 07:33N 34°36' E 135°23'3 3.0
2014-Apr-16 06:33N 34°34' E 135°26'0 0.0
2014-Apr-16 05:25N 34°34' E 135°26'0 0.0
2014-Apr-16 04:33N 34°34' E 135°26'1 0.8
2014-Apr-16 03:33N 34°33' E 135°26'1 0.3
2014-Apr-15 23:33N 34°33' E 135°25'2 1.8
2014-Apr-15 22:17N 34°35' E 135°23'0 0.0
2014-Apr-15 19:11N 34°35' E 135°23'0 0.0
2014-Apr-15 17:11N 34°35' E 135°23'0 0.1
2014-Apr-15 16:29N 34°35' E 135°23'0 0.0
2014-Apr-15 15:29N 34°35' E 135°23'0 0.0
2014-Apr-15 14:23N 34°35' E 135°23'0 0.0
2014-Apr-15 12:30N 34°35' E 135°23'0 0.0
2014-Apr-15 10:30N 34°35' E 135°23'0 0.0
2014-Apr-15 09:30N 34°35' E 135°23'0 0.0
2014-Apr-15 03:34N 34°35' E 135°23'0 0.0
2014-Apr-15 02:33N 34°35' E 135°23'2 1.9
2014-Apr-15 01:34N 34°36' E 135°25'2 0.8
2014-Apr-14 23:32N 34°34' E 135°26'0 0.0
2014-Apr-14 22:32N 34°34' E 135°26'5 5.2
2014-Apr-14 21:34N 34°34' E 135°19'1212.0
2014-Apr-14 20:33N 34°25' E 135°09'1212.0
2014-Apr-14 19:31N 34°16' E 134°59'1111.7
2014-Apr-14 18:32N 34°05' E 135°01'  

Dump ship's entire track history

sailing weather and tide predictions

Oval Lp No.11 — JL6306 — position and weather